createdAt,value
2018-04-25T00:00:34.658Z,16.10
2018-04-25T00:03:00.992Z,16.10
2018-04-25T00:05:27.337Z,16.30
2018-04-25T00:07:53.786Z,16.20
2018-04-25T00:10:20.158Z,16.10
2018-04-25T00:12:46.563Z,16.00
2018-04-25T00:15:13.075Z,16.10
2018-04-25T00:17:39.451Z,16.20
2018-04-25T00:20:05.759Z,16.20
2018-04-25T00:22:32.070Z,16.10
2018-04-25T00:25:00.352Z,16.00
2018-04-25T00:27:26.723Z,16.00
2018-04-25T00:29:53.058Z,16.00
2018-04-25T00:32:19.386Z,16.00
2018-04-25T00:34:46.495Z,16.00
2018-04-25T00:37:13.582Z,15.90
2018-04-25T00:39:39.905Z,15.90
2018-04-25T00:42:06.958Z,16.10
2018-04-25T00:44:33.916Z,16.10
2018-04-25T00:46:59.988Z,16.60
2018-04-25T00:49:26.115Z,16.10
2018-04-25T00:51:52.238Z,16.10
2018-04-25T00:54:19.108Z,16.20
2018-04-25T00:56:45.645Z,16.20
2018-04-25T00:59:12.710Z,16.20
2018-04-25T01:01:38.855Z,16.30
2018-04-25T01:04:04.976Z,16.20
2018-04-25T01:06:31.279Z,16.40
2018-04-25T01:08:57.404Z,16.40
2018-04-25T01:11:23.719Z,16.30
2018-04-25T01:13:50.233Z,16.10
2018-04-25T01:16:17.298Z,16.40
2018-04-25T01:18:43.414Z,16.40
2018-04-25T01:21:10.269Z,16.40
2018-04-25T01:23:36.358Z,16.40
2018-04-25T01:26:06.090Z,16.40
2018-04-25T01:28:39.534Z,16.40
2018-04-25T01:31:27.785Z,16.50
2018-04-25T01:33:54.103Z,16.50
2018-04-25T01:36:27.989Z,16.50
2018-04-25T01:38:54.322Z,16.50
2018-04-25T01:41:20.652Z,16.50
2018-04-25T01:43:49.822Z,16.90
2018-04-25T01:46:18.102Z,16.40
2018-04-25T01:49:05.401Z,16.50
2018-04-25T01:51:44.568Z,16.50
2018-04-25T01:54:23.111Z,16.50
2018-04-25T01:57:01.738Z,16.50
2018-04-25T01:59:40.293Z,16.50
2018-04-25T02:02:06.500Z,16.50
2018-04-25T02:04:32.816Z,16.60
2018-04-25T02:06:59.121Z,16.60
2018-04-25T02:09:26.220Z,16.50
2018-04-25T02:11:52.562Z,16.50
2018-04-25T02:14:18.880Z,16.30
2018-04-25T02:16:45.201Z,16.50
2018-04-25T02:19:12.267Z,16.60
2018-04-25T02:21:39.322Z,16.50
2018-04-25T02:24:05.620Z,16.60
2018-04-25T02:26:31.941Z,16.40
2018-04-25T02:28:58.988Z,16.50
2018-04-25T02:31:26.090Z,16.60
2018-04-25T02:33:52.456Z,16.50
2018-04-25T02:36:18.813Z,16.60
2018-04-25T02:38:45.148Z,16.50
2018-04-25T02:41:11.447Z,16.60
2018-04-25T02:43:37.775Z,16.50
2018-04-25T02:46:04.083Z,16.50
2018-04-25T02:48:30.432Z,16.70
2018-04-25T02:50:56.759Z,16.60
2018-04-25T02:53:23.083Z,16.50
2018-04-25T02:55:49.423Z,16.50
2018-04-25T02:58:15.707Z,16.50
2018-04-25T03:00:42.018Z,16.40
2018-04-25T03:03:08.318Z,16.40
2018-04-25T03:05:34.649Z,16.30
2018-04-25T03:08:00.959Z,16.30
2018-04-25T03:10:27.315Z,16.30
2018-04-25T03:12:53.599Z,16.50
2018-04-25T03:15:20.631Z,16.40
2018-04-25T03:17:47.681Z,16.40
2018-04-25T03:20:13.938Z,16.40
2018-04-25T03:22:40.433Z,16.30
2018-04-25T03:25:07.445Z,16.20
2018-04-25T03:27:33.781Z,16.20
2018-04-25T03:30:00.207Z,16.20
2018-04-25T03:32:26.523Z,16.20
2018-04-25T03:34:52.856Z,16.20
2018-04-25T03:37:19.178Z,16.20
2018-04-25T03:39:45.485Z,17.40
2018-04-25T03:42:11.795Z,16.20
2018-04-25T03:44:38.155Z,16.50
2018-04-25T03:47:04.468Z,16.20
2018-04-25T03:49:31.527Z,16.20
2018-04-25T03:51:58.587Z,16.20
2018-04-25T03:54:24.926Z,16.20
2018-04-25T03:56:51.995Z,16.20
2018-04-25T03:59:18.843Z,16.30
2018-04-25T04:01:45.887Z,16.30
2018-04-25T04:04:11.999Z,16.30
2018-04-25T04:06:38.113Z,16.60
2018-04-25T04:09:04.249Z,16.20
2018-04-25T04:11:30.376Z,16.10
2018-04-25T04:13:57.228Z,16.10
2018-04-25T04:16:23.356Z,16.10
2018-04-25T04:18:50.325Z,16.20
2018-04-25T04:21:16.459Z,16.20
2018-04-25T04:23:43.350Z,16.00
2018-04-25T04:26:12.642Z,15.80
2018-04-25T04:28:38.797Z,16.20
2018-04-25T04:31:05.710Z,16.10
2018-04-25T04:33:31.831Z,16.00
2018-04-25T04:36:01.193Z,16.00
2018-04-25T04:38:28.088Z,16.10
2018-04-25T04:40:54.263Z,16.00
2018-04-25T04:43:20.403Z,16.10
2018-04-25T04:45:46.510Z,16.10
2018-04-25T04:48:12.611Z,16.00
2018-04-25T04:50:38.711Z,16.10
2018-04-25T04:53:04.818Z,16.00
2018-04-25T04:55:30.984Z,16.00
2018-04-25T04:57:57.080Z,15.90
2018-04-25T05:00:23.178Z,16.00
2018-04-25T05:02:49.292Z,15.90
2018-04-25T05:05:15.402Z,15.70
2018-04-25T05:07:42.307Z,16.00
2018-04-25T05:10:08.416Z,16.00
2018-04-25T05:12:34.565Z,16.10
2018-04-25T05:15:00.761Z,15.70
2018-04-25T05:17:26.872Z,15.90
2018-04-25T05:19:53.008Z,15.90
2018-04-25T05:22:19.163Z,16.00
2018-04-25T05:24:46.085Z,15.90
2018-04-25T05:27:12.173Z,15.90
2018-04-25T05:29:38.299Z,15.80
2018-04-25T05:32:05.380Z,16.10
2018-04-25T05:34:31.575Z,16.00
2018-04-25T05:36:58.470Z,16.00
2018-04-25T05:39:24.783Z,16.00
2018-04-25T05:41:50.926Z,16.00
2018-04-25T05:44:17.106Z,16.00
2018-04-25T05:46:43.235Z,15.90
2018-04-25T05:49:09.382Z,15.90
2018-04-25T05:51:35.620Z,15.90
2018-04-25T05:54:03.051Z,15.90
2018-04-25T05:56:30.083Z,15.30
2018-04-25T05:58:56.207Z,15.50
2018-04-25T06:01:23.066Z,15.10
2018-04-25T06:03:49.968Z,15.20
2018-04-25T06:06:16.225Z,15.10
2018-04-25T06:08:42.356Z,15.10
2018-04-25T06:11:08.588Z,15.10
2018-04-25T06:13:34.808Z,15.00
2018-04-25T06:16:01.070Z,15.00
2018-04-25T06:18:27.179Z,15.00
2018-04-25T06:20:53.472Z,15.10
2018-04-25T06:23:19.805Z,15.00
2018-04-25T06:25:45.950Z,15.00
2018-04-25T06:28:12.352Z,14.90
2018-04-25T06:30:38.384Z,14.90
2018-04-25T06:33:04.706Z,14.80
2018-04-25T06:35:31.556Z,14.70
2018-04-25T06:37:58.455Z,14.70
2018-04-25T06:40:24.562Z,14.70
2018-04-25T06:42:51.413Z,14.50
2018-04-25T06:45:18.254Z,14.50
2018-04-25T06:47:45.111Z,14.40
2018-04-25T06:50:11.219Z,14.40
2018-04-25T06:52:37.467Z,14.20
2018-04-25T06:55:03.660Z,14.30
2018-04-25T06:57:30.524Z,14.20
2018-04-25T06:59:56.732Z,14.10
2018-04-25T07:02:23.587Z,14.30
2018-04-25T07:04:49.696Z,14.20
2018-04-25T07:07:15.833Z,14.20
2018-04-25T07:09:41.954Z,14.20
2018-04-25T07:12:08.055Z,14.10
2018-04-25T07:14:34.906Z,14.30
2018-04-25T07:17:01.043Z,14.70
2018-04-25T07:19:27.444Z,14.40
2018-04-25T07:21:53.570Z,14.30
2018-04-25T07:24:19.689Z,14.40
2018-04-25T07:26:45.815Z,14.40
2018-04-25T07:29:11.924Z,14.70
2018-04-25T07:31:38.248Z,14.60
2018-04-25T07:34:04.611Z,14.70
2018-04-25T07:36:30.931Z,14.80
2018-04-25T07:38:58.082Z,14.80
2018-04-25T07:41:24.778Z,14.80
2018-04-25T07:43:50.998Z,14.70
2018-04-25T07:46:17.128Z,14.70
2018-04-25T07:48:43.454Z,14.60
2018-04-25T07:51:09.860Z,14.80
2018-04-25T07:53:36.926Z,15.30
2018-04-25T07:56:04.075Z,17.00
2018-04-25T07:58:30.387Z,17.00
2018-04-25T08:01:01.660Z,17.30
2018-04-25T08:03:27.955Z,16.90
2018-04-25T08:05:54.265Z,16.60
2018-04-25T08:08:20.582Z,17.10
2018-04-25T08:10:46.936Z,17.30
2018-04-25T08:13:28.814Z,17.60
2018-04-25T08:16:07.171Z,17.30
2018-04-25T08:18:45.792Z,18.10
2018-04-25T08:21:24.178Z,17.60
2018-04-25T08:23:50.891Z,17.10
2018-04-25T08:26:17.372Z,17.00
2018-04-25T08:28:43.714Z,16.60
2018-04-25T08:31:11.587Z,16.40
2018-04-25T08:33:38.742Z,15.90
2018-04-25T08:36:05.035Z,15.90
2018-04-25T08:38:31.465Z,15.80
2018-04-25T08:40:57.779Z,15.50
2018-04-25T08:43:24.083Z,15.60
2018-04-25T08:45:51.331Z,15.10
2018-04-25T08:48:18.406Z,14.90
2018-04-25T08:50:47.115Z,14.80
2018-04-25T08:53:14.187Z,14.80
2018-04-25T08:55:40.517Z,14.80
2018-04-25T08:58:07.610Z,14.70
2018-04-25T09:00:33.903Z,14.70
2018-04-25T09:03:00.225Z,14.70
2018-04-25T09:05:26.648Z,14.50
2018-04-25T09:07:56.761Z,14.70
2018-04-25T09:10:23.821Z,14.20
2018-04-25T09:12:50.262Z,14.20
2018-04-25T09:15:16.576Z,14.30
2018-04-25T09:17:42.894Z,14.20
2018-04-25T09:20:09.962Z,14.10
2018-04-25T09:22:41.599Z,14.10
2018-04-25T09:25:08.979Z,14.10
2018-04-25T09:27:36.077Z,14.30
2018-04-25T09:30:03.173Z,14.50
2018-04-25T09:32:30.265Z,14.80
2018-04-25T09:34:56.607Z,14.80
2018-04-25T09:37:28.432Z,14.90
2018-04-25T09:39:54.776Z,15.10
2018-04-25T09:42:21.130Z,15.00
2018-04-25T09:44:47.474Z,15.00
2018-04-25T09:47:13.910Z,15.40
2018-04-25T09:49:40.244Z,15.20
2018-04-25T09:52:06.560Z,15.40
2018-04-25T09:54:35.199Z,15.80
2018-04-25T09:57:01.853Z,15.60
2018-04-25T09:59:28.169Z,15.50
2018-04-25T10:02:00.637Z,15.70
2018-04-25T10:04:26.940Z,15.50
2018-04-25T10:06:53.258Z,15.40
2018-04-25T10:09:25.260Z,15.50
2018-04-25T10:11:52.403Z,15.40
2018-04-25T10:14:18.764Z,15.40
2018-04-25T10:16:44.873Z,15.30
2018-04-25T10:19:11.236Z,15.50
2018-04-25T10:21:37.352Z,15.30
2018-04-25T10:24:04.236Z,15.60
2018-04-25T10:26:35.326Z,15.70
2018-04-25T10:29:01.434Z,15.70
2018-04-25T10:31:27.527Z,15.90
2018-04-25T10:33:53.637Z,16.00
2018-04-25T10:36:20.626Z,16.40
2018-04-25T10:38:46.745Z,16.40
2018-04-25T10:41:12.873Z,16.60
2018-04-25T10:43:40.719Z,16.70
2018-04-25T10:46:07.033Z,16.20
2018-04-25T10:48:34.091Z,16.00
2018-04-25T10:51:00.398Z,16.50
2018-04-25T10:53:27.701Z,16.10
2018-04-25T10:55:54.770Z,16.20
2018-04-25T10:58:21.268Z,16.20
2018-04-25T11:00:50.290Z,16.00
2018-04-25T11:03:16.754Z,16.10
2018-04-25T11:05:43.076Z,15.90
2018-04-25T11:08:09.428Z,15.90
2018-04-25T11:10:36.579Z,15.70
2018-04-25T11:13:02.767Z,15.70
2018-04-25T11:15:28.931Z,15.70
2018-04-25T11:17:55.266Z,15.70
2018-04-25T11:20:24.701Z,16.00
2018-04-25T11:22:51.042Z,15.90
2018-04-25T11:25:17.347Z,16.00
2018-04-25T11:27:43.677Z,16.30
2018-04-25T11:30:09.991Z,16.00
2018-04-25T11:32:37.120Z,15.90
2018-04-25T11:35:03.407Z,15.80
2018-04-25T11:37:35.174Z,16.10
2018-04-25T11:40:01.302Z,16.10
2018-04-25T11:42:27.428Z,16.20
2018-04-25T11:44:53.538Z,16.30
2018-04-25T11:47:19.705Z,16.30
2018-04-25T11:49:45.796Z,16.40
2018-04-25T11:52:11.941Z,16.70
2018-04-25T11:54:40.893Z,17.00
2018-04-25T11:57:07.002Z,16.80
2018-04-25T11:59:33.165Z,16.80
2018-04-25T12:01:59.297Z,16.90
2018-04-25T12:04:25.454Z,16.90
2018-04-25T12:06:51.586Z,16.70
2018-04-25T12:09:17.711Z,16.70
2018-04-25T12:11:46.911Z,16.80
2018-04-25T12:14:13.983Z,17.00
2018-04-25T12:16:40.348Z,17.00
2018-04-25T12:19:07.293Z,16.90
2018-04-25T12:21:33.419Z,16.90
2018-04-25T12:23:59.526Z,16.90
2018-04-25T12:26:25.716Z,16.40
2018-04-25T12:28:51.838Z,16.40
2018-04-25T12:31:20.952Z,16.60
2018-04-25T12:33:48.046Z,16.60
2018-04-25T12:36:15.101Z,16.70
2018-04-25T12:38:42.485Z,16.80
2018-04-25T12:41:09.351Z,16.80
2018-04-25T12:43:36.199Z,16.80
2018-04-25T12:46:05.665Z,16.80
2018-04-25T12:48:31.782Z,16.80
2018-04-25T12:50:57.986Z,16.90
2018-04-25T12:53:24.131Z,17.00
2018-04-25T12:55:50.488Z,16.90
2018-04-25T12:58:17.682Z,17.10
2018-04-25T13:00:44.120Z,17.00
2018-04-25T13:03:16.400Z,17.10
2018-04-25T13:05:42.768Z,17.30
2018-04-25T13:08:09.111Z,17.20
2018-04-25T13:10:35.875Z,17.10
2018-04-25T13:13:02.891Z,16.80
2018-04-25T13:15:29.307Z,16.80
2018-04-25T13:17:56.228Z,16.50
2018-04-25T13:20:22.368Z,16.50
2018-04-25T13:22:50.046Z,16.70
2018-04-25T13:25:16.535Z,16.50
2018-04-25T13:27:42.839Z,16.60
2018-04-25T13:30:09.918Z,16.60
2018-04-25T13:32:36.251Z,16.60
2018-04-25T13:35:02.740Z,16.50
2018-04-25T13:37:29.795Z,16.60
2018-04-25T13:39:59.654Z,16.60
2018-04-25T13:42:26.714Z,16.50
2018-04-25T13:44:52.845Z,16.50
2018-04-25T13:47:19.182Z,16.60
2018-04-25T13:49:45.515Z,17.00
2018-04-25T13:52:11.827Z,16.70
2018-04-25T13:54:38.171Z,16.80
2018-04-25T13:57:07.065Z,16.90
2018-04-25T13:59:34.412Z,16.90
2018-04-25T14:02:01.451Z,16.90
2018-04-25T14:04:30.831Z,16.90
2018-04-25T14:06:56.917Z,16.90
2018-04-25T14:09:23.061Z,17.00
2018-04-25T14:11:50.140Z,16.90
2018-04-25T14:14:17.006Z,16.80
2018-04-25T14:16:43.117Z,16.70
2018-04-25T14:19:09.249Z,16.70
2018-04-25T14:21:35.396Z,16.50
2018-04-25T14:24:05.316Z,16.70
2018-04-25T14:26:32.473Z,16.60
2018-04-25T14:29:13.875Z,16.70
2018-04-25T14:31:45.776Z,16.70
2018-04-25T14:34:11.878Z,16.70
2018-04-25T14:36:38.054Z,16.80
2018-04-25T14:39:04.993Z,16.80
2018-04-25T14:41:31.133Z,16.70
2018-04-25T14:43:58.022Z,16.80
2018-04-25T14:46:24.896Z,16.80
2018-04-25T14:48:51.324Z,16.80
2018-04-25T14:51:17.466Z,16.80
2018-04-25T14:53:43.584Z,16.80
2018-04-25T14:56:09.749Z,16.80
2018-04-25T14:58:35.908Z,16.60
2018-04-25T15:01:02.051Z,16.80
2018-04-25T15:03:29.531Z,16.80
2018-04-25T15:05:55.690Z,16.80
2018-04-25T15:08:21.956Z,16.80
2018-04-25T15:10:48.405Z,16.60
2018-04-25T15:13:15.310Z,16.70
2018-04-25T15:15:41.523Z,17.70
2018-04-25T15:18:07.747Z,16.50
2018-04-25T15:20:33.899Z,16.50
2018-04-25T15:23:00.119Z,16.50
2018-04-25T15:25:26.320Z,16.60
2018-04-25T15:27:52.419Z,16.60
2018-04-25T15:30:18.537Z,16.90
2018-04-25T15:32:44.909Z,16.60
2018-04-25T15:35:11.029Z,16.50
2018-04-25T15:37:38.269Z,16.40
2018-04-25T15:40:04.413Z,16.60
2018-04-25T15:42:30.531Z,16.30
2018-04-25T15:44:56.667Z,16.50
2018-04-25T15:47:23.178Z,16.10
2018-04-25T15:49:49.406Z,16.20
2018-04-25T15:52:15.598Z,16.00
2018-04-25T15:54:41.739Z,16.20
2018-04-25T15:57:07.895Z,16.20
2018-04-25T15:59:34.003Z,16.80
2018-04-25T16:02:00.340Z,16.30
2018-04-25T16:04:26.468Z,16.40
2018-04-25T16:06:52.574Z,16.50
2018-04-25T16:09:19.139Z,16.40
2018-04-25T16:11:46.122Z,16.40
2018-04-25T16:14:12.270Z,16.30
2018-04-25T16:16:38.406Z,16.20
2018-04-25T16:19:04.520Z,16.20
2018-04-25T16:21:31.360Z,16.10
2018-04-25T16:23:57.452Z,16.10
2018-04-25T16:26:23.567Z,16.20
2018-04-25T16:28:49.735Z,16.10
2018-04-25T16:31:16.537Z,16.00
2018-04-25T16:33:42.926Z,16.10
2018-04-25T16:36:09.072Z,16.00
2018-04-25T16:38:35.981Z,16.00
2018-04-25T16:41:02.752Z,15.90
2018-04-25T16:43:52.907Z,15.40
2018-04-25T16:46:23.167Z,15.80
2018-04-25T16:48:49.266Z,15.80
2018-04-25T16:51:15.498Z,16.20
2018-04-25T16:53:45.426Z,15.90
2018-04-25T16:56:11.549Z,15.90
2018-04-25T16:58:37.815Z,15.90
2018-04-25T17:01:03.927Z,16.00
2018-04-25T17:03:30.855Z,16.00
2018-04-25T17:05:56.948Z,16.30
2018-04-25T17:08:23.116Z,16.30
2018-04-25T17:10:51.656Z,15.60
2018-04-25T17:13:17.776Z,15.70
2018-04-25T17:15:43.887Z,15.60
2018-04-25T17:18:10.831Z,15.50
2018-04-25T17:20:37.017Z,15.50
2018-04-25T17:23:03.916Z,15.50
2018-04-25T17:25:30.776Z,15.40
2018-04-25T17:27:59.391Z,15.40
2018-04-25T17:30:25.494Z,15.40
2018-04-25T17:32:51.597Z,15.70
2018-04-25T17:35:17.691Z,15.30
2018-04-25T17:37:43.963Z,15.30
2018-04-25T17:40:10.070Z,15.30
2018-04-25T17:42:36.195Z,15.50
2018-04-25T17:45:02.328Z,15.30
2018-04-25T17:47:31.940Z,15.20
2018-04-25T17:49:58.123Z,15.10
2018-04-25T17:52:24.952Z,15.10
2018-04-25T17:54:51.258Z,15.10
2018-04-25T17:57:17.378Z,15.10
2018-04-25T17:59:43.597Z,15.10
2018-04-25T18:02:09.739Z,15.30
2018-04-25T18:04:35.854Z,15.10
2018-04-25T18:07:02.003Z,14.70
2018-04-25T18:09:32.018Z,15.00
2018-04-25T18:11:58.152Z,14.90
2018-04-25T18:14:24.254Z,14.90
2018-04-25T18:16:50.400Z,14.80
2018-04-25T18:19:16.549Z,14.90
2018-04-25T18:21:42.672Z,15.30
2018-04-25T18:24:08.796Z,14.80
2018-04-25T18:26:34.919Z,14.70
2018-04-25T18:29:01.023Z,14.60
2018-04-25T18:31:27.128Z,14.60
2018-04-25T18:33:58.334Z,14.60
2018-04-25T18:36:24.460Z,14.50
2018-04-25T18:38:50.599Z,14.50
2018-04-25T18:41:17.561Z,14.50
2018-04-25T18:43:44.146Z,14.20
2018-04-25T18:46:10.318Z,14.40
2018-04-25T18:48:36.498Z,14.50
2018-04-25T18:51:03.334Z,14.40
2018-04-25T18:53:29.458Z,14.40
2018-04-25T18:55:55.559Z,13.90
2018-04-25T18:58:21.648Z,14.40
2018-04-25T19:00:48.597Z,14.30
2018-04-25T19:03:14.848Z,14.30
2018-04-25T19:05:40.937Z,14.30
2018-04-25T19:08:07.056Z,14.30
2018-04-25T19:10:33.231Z,14.20
2018-04-25T19:12:59.359Z,14.20
2018-04-25T19:15:25.549Z,14.10
2018-04-25T19:17:51.793Z,14.20
2018-04-25T19:20:18.033Z,14.20
2018-04-25T19:22:44.479Z,14.10
2018-04-25T19:25:10.797Z,14.10
2018-04-25T19:27:36.959Z,14.10
2018-04-25T19:30:03.869Z,14.00
2018-04-25T19:32:30.038Z,14.00
2018-04-25T19:34:56.252Z,14.00
2018-04-25T19:37:22.626Z,13.90
2018-04-25T19:39:49.562Z,13.90
2018-04-25T19:42:15.714Z,13.90
2018-04-25T19:44:41.969Z,13.90
2018-04-25T19:47:08.102Z,13.90
2018-04-25T19:49:34.225Z,13.90
2018-04-25T19:52:00.507Z,14.00
2018-04-25T19:54:26.743Z,13.90
2018-04-25T19:56:52.855Z,13.90
2018-04-25T19:59:18.984Z,14.00
2018-04-25T20:01:45.221Z,14.00
2018-04-25T20:04:11.373Z,14.30
2018-04-25T20:06:37.487Z,13.90
2018-04-25T20:09:03.633Z,13.90
2018-04-25T20:11:29.748Z,13.90
2018-04-25T20:13:56.749Z,13.80
2018-04-25T20:16:22.771Z,14.60
2018-04-25T20:18:49.891Z,13.80
2018-04-25T20:21:16.004Z,13.80
2018-04-25T20:23:42.131Z,13.90
2018-04-25T20:26:08.252Z,13.80
2018-04-25T20:28:34.383Z,13.80
2018-04-25T20:31:01.228Z,13.80
2018-04-25T20:33:27.407Z,14.00
2018-04-25T20:35:53.671Z,13.70
2018-04-25T20:38:19.812Z,13.80
2018-04-25T20:40:45.925Z,13.80
2018-04-25T20:43:12.906Z,13.80
2018-04-25T20:45:39.163Z,13.70
2018-04-25T20:48:05.301Z,13.60
2018-04-25T20:50:31.415Z,13.50
2018-04-25T20:52:57.556Z,13.40
2018-04-25T20:55:23.826Z,13.20
2018-04-25T20:57:50.095Z,13.00
2018-04-25T21:00:16.974Z,13.00
2018-04-25T21:02:43.136Z,13.00
2018-04-25T21:05:09.402Z,12.90
2018-04-25T21:07:36.317Z,13.00
2018-04-25T21:10:02.534Z,12.90
2018-04-25T21:12:28.675Z,12.90
2018-04-25T21:14:55.543Z,12.90
2018-04-25T21:17:21.787Z,12.90
2018-04-25T21:19:47.890Z,12.90
2018-04-25T21:22:14.011Z,12.70
2018-04-25T21:24:40.145Z,12.80
2018-04-25T21:27:06.264Z,12.80
2018-04-25T21:29:32.435Z,12.90
2018-04-25T21:31:58.550Z,12.80
2018-04-25T21:34:26.845Z,12.90
2018-04-25T21:36:52.959Z,12.80
2018-04-25T21:39:19.402Z,12.80
2018-04-25T21:41:45.814Z,12.70
2018-04-25T21:44:11.929Z,12.70
2018-04-25T21:46:38.178Z,12.70
2018-04-25T21:49:04.412Z,12.70
2018-04-25T21:51:30.588Z,12.70
2018-04-25T21:53:57.547Z,12.60
2018-04-25T21:56:23.739Z,12.60
2018-04-25T21:58:49.971Z,12.50
2018-04-25T22:01:16.453Z,12.60
2018-04-25T22:03:43.044Z,12.60
2018-04-25T22:06:09.319Z,12.60
2018-04-25T22:08:35.585Z,12.50
2018-04-25T22:11:01.818Z,12.50
2018-04-25T22:13:28.082Z,12.40
2018-04-25T22:15:55.127Z,12.30
2018-04-25T22:18:21.403Z,12.30
2018-04-25T22:20:47.586Z,12.20
2018-04-25T22:23:13.763Z,12.10
2018-04-25T22:25:40.728Z,12.00
2018-04-25T22:28:07.762Z,12.00
2018-04-25T22:30:33.999Z,12.00
2018-04-25T22:33:00.236Z,12.10
2018-04-25T22:35:26.488Z,12.00
2018-04-25T22:37:53.525Z,11.90
2018-04-25T22:40:19.691Z,12.00
2018-04-25T22:42:46.596Z,11.90
2018-04-25T22:45:12.824Z,11.80
2018-04-25T22:47:38.929Z,11.80
2018-04-25T22:50:05.572Z,11.80
2018-04-25T22:52:31.682Z,11.80
2018-04-25T22:54:57.801Z,11.80
2018-04-25T22:57:23.975Z,11.80
2018-04-25T22:59:50.099Z,11.80
2018-04-25T23:02:16.235Z,11.60
2018-04-25T23:04:42.364Z,12.10
2018-04-25T23:07:08.479Z,11.70
2018-04-25T23:09:35.318Z,11.60
2018-04-25T23:12:02.181Z,11.60
2018-04-25T23:14:29.986Z,11.60
2018-04-25T23:16:56.103Z,11.60
2018-04-25T23:19:22.239Z,11.60
2018-04-25T23:21:49.083Z,11.50
2018-04-25T23:24:15.191Z,11.50
2018-04-25T23:26:41.471Z,11.50
2018-04-25T23:29:08.341Z,11.50
2018-04-25T23:31:34.454Z,11.50
2018-04-25T23:34:01.327Z,11.50
2018-04-25T23:36:28.211Z,11.40
2018-04-25T23:38:54.309Z,11.40
2018-04-25T23:41:20.413Z,11.40
2018-04-25T23:43:46.531Z,11.30
2018-04-25T23:46:12.683Z,11.30
2018-04-25T23:48:38.770Z,11.30
2018-04-25T23:51:04.902Z,11.30
2018-04-25T23:53:31.751Z,11.30
2018-04-25T23:55:58.021Z,11.30
2018-04-25T23:58:24.349Z,12.10
